createdAt,value
2017-05-28T00:00:56.025Z,43.10
2017-05-28T00:03:27.620Z,43.90
2017-05-28T00:05:58.467Z,43.90
2017-05-28T00:08:29.344Z,43.80
2017-05-28T00:11:00.766Z,43.60
2017-05-28T00:13:31.950Z,43.70
2017-05-28T00:16:03.051Z,44.10
2017-05-28T00:18:35.661Z,44.10
2017-05-28T00:21:06.638Z,44.00
2017-05-28T00:23:37.488Z,44.10
2017-05-28T00:26:08.306Z,44.00
2017-05-28T00:28:39.958Z,43.90
2017-05-28T00:31:11.322Z,44.00
2017-05-28T00:33:43.105Z,44.00
2017-05-28T00:36:13.935Z,44.00
2017-05-28T00:38:44.714Z,43.90
2017-05-28T00:41:15.853Z,43.80
2017-05-28T00:43:46.786Z,43.80
2017-05-28T00:46:17.701Z,44.10
2017-05-28T00:48:48.975Z,44.20
2017-05-28T00:51:19.713Z,44.30
2017-05-28T00:53:50.598Z,44.80
2017-05-28T00:56:21.442Z,45.10
2017-05-28T00:58:56.266Z,45.60
2017-05-28T01:01:27.089Z,45.80
2017-05-28T01:04:00.293Z,46.60
2017-05-28T01:06:32.418Z,46.50
2017-05-28T01:09:05.084Z,47.50
2017-05-28T01:11:36.064Z,47.70
2017-05-28T01:14:08.482Z,47.80
2017-05-28T01:16:39.822Z,48.00
2017-05-28T01:19:10.789Z,48.80
2017-05-28T01:21:42.635Z,48.90
2017-05-28T01:24:13.477Z,49.20
2017-05-28T01:26:44.656Z,49.70
2017-05-28T01:29:16.173Z,49.80
2017-05-28T01:31:47.434Z,50.30
2017-05-28T01:34:18.404Z,51.80
2017-05-28T01:36:51.017Z,52.20
2017-05-28T01:39:22.137Z,52.00
2017-05-28T01:41:53.213Z,51.90
2017-05-28T01:44:24.452Z,51.90
2017-05-28T01:46:56.897Z,51.90
2017-05-28T01:49:28.020Z,52.10
2017-05-28T01:51:58.950Z,52.60
2017-05-28T01:54:30.605Z,53.20
2017-05-28T01:57:01.462Z,53.70
2017-05-28T01:59:32.827Z,54.20
2017-05-28T02:02:04.075Z,54.10
2017-05-28T02:04:35.543Z,54.50
2017-05-28T02:07:07.597Z,54.70
2017-05-28T02:09:39.088Z,54.50
2017-05-28T02:12:09.937Z,55.20
2017-05-28T02:14:40.741Z,56.10
2017-05-28T02:17:11.586Z,56.60
2017-05-28T02:19:43.729Z,56.70
2017-05-28T02:22:15.474Z,56.00
2017-05-28T02:24:46.794Z,57.10
2017-05-28T02:27:17.682Z,57.40
2017-05-28T02:29:49.467Z,57.00
2017-05-28T02:32:21.009Z,59.00
2017-05-28T02:34:53.170Z,58.10
2017-05-28T02:37:23.924Z,58.00
2017-05-28T02:39:54.713Z,58.20
2017-05-28T02:42:26.081Z,58.30
2017-05-28T02:44:57.543Z,59.10
2017-05-28T02:47:28.290Z,58.50
2017-05-28T02:49:59.570Z,59.20
2017-05-28T02:52:30.865Z,59.20
2017-05-28T02:55:01.629Z,59.60
2017-05-28T02:57:33.525Z,59.20
2017-05-28T03:00:05.797Z,60.70
2017-05-28T03:02:37.259Z,60.70
2017-05-28T03:05:09.728Z,61.70
2017-05-28T03:07:40.539Z,60.60
2017-05-28T03:10:11.357Z,62.60
2017-05-28T03:12:42.128Z,62.80
2017-05-28T03:15:13.928Z,62.00
2017-05-28T03:17:44.969Z,62.00
2017-05-28T03:20:15.801Z,61.30
2017-05-28T03:22:46.705Z,62.20
2017-05-28T03:25:18.022Z,61.30
2017-05-28T03:27:48.887Z,62.40
2017-05-28T03:30:21.231Z,61.90
2017-05-28T03:32:52.160Z,62.40
2017-05-28T03:35:24.554Z,62.40
2017-05-28T03:37:55.398Z,62.10
2017-05-28T03:40:28.410Z,62.40
2017-05-28T03:42:59.192Z,63.30
2017-05-28T03:45:32.312Z,64.10
2017-05-28T03:48:04.658Z,64.30
2017-05-28T03:50:36.294Z,64.60
2017-05-28T03:53:07.049Z,63.40
2017-05-28T03:55:38.572Z,63.40
2017-05-28T03:58:10.825Z,62.30
2017-05-28T04:00:41.873Z,62.30
2017-05-28T04:03:12.453Z,62.30
2017-05-28T04:05:43.814Z,62.40
2017-05-28T04:08:14.846Z,62.10
2017-05-28T04:10:45.785Z,62.70
2017-05-28T04:13:16.974Z,61.90
2017-05-28T04:15:48.716Z,61.10
2017-05-28T04:18:19.481Z,60.80
2017-05-28T04:20:50.490Z,61.70
2017-05-28T04:23:21.696Z,63.60
2017-05-28T04:25:52.571Z,64.10
2017-05-28T04:28:23.483Z,63.70
2017-05-28T04:30:55.496Z,63.00
2017-05-28T04:33:26.366Z,63.00
2017-05-28T04:35:57.644Z,62.50
2017-05-28T04:38:28.920Z,61.50
2017-05-28T04:41:00.038Z,61.60
2017-05-28T04:43:30.904Z,60.80
2017-05-28T04:46:01.806Z,60.80
2017-05-28T04:48:32.656Z,60.90
2017-05-28T04:51:03.869Z,61.00
2017-05-28T04:53:35.277Z,61.00
2017-05-28T04:56:06.329Z,61.00
2017-05-28T04:58:37.346Z,61.20
2017-05-28T05:01:12.765Z,60.00
2017-05-28T05:03:43.615Z,59.60
2017-05-28T05:06:14.897Z,60.20
2017-05-28T05:08:45.847Z,60.20
2017-05-28T05:11:17.065Z,60.10
2017-05-28T05:13:48.018Z,59.90
2017-05-28T05:16:18.974Z,58.20
2017-05-28T05:18:51.377Z,57.60
2017-05-28T05:21:22.331Z,57.50
2017-05-28T05:23:55.030Z,56.90
2017-05-28T05:26:26.864Z,57.00
2017-05-28T05:28:59.668Z,56.70
2017-05-28T05:31:31.198Z,56.70
2017-05-28T05:34:07.963Z,56.80
2017-05-28T05:36:39.326Z,56.50
2017-05-28T05:39:11.306Z,56.40
2017-05-28T05:41:47.322Z,56.70
2017-05-28T05:44:18.959Z,57.10
2017-05-28T05:46:49.824Z,60.80
2017-05-28T05:49:21.272Z,60.80
2017-05-28T05:51:52.350Z,60.70
2017-05-28T05:54:23.580Z,60.70
2017-05-28T05:56:55.523Z,60.90
2017-05-28T05:59:26.389Z,60.70
2017-05-28T06:01:58.957Z,60.90
2017-05-28T06:04:30.150Z,60.80
2017-05-28T06:07:01.837Z,63.00
2017-05-28T06:09:32.734Z,61.90
2017-05-28T06:12:03.639Z,61.20
2017-05-28T06:14:34.964Z,60.80
2017-05-28T06:17:06.913Z,60.90
2017-05-28T06:19:37.920Z,61.20
2017-05-28T06:22:11.638Z,62.00
2017-05-28T06:24:42.646Z,63.70
2017-05-28T06:27:13.974Z,66.00
2017-05-28T06:29:44.877Z,65.60
2017-05-28T06:32:16.794Z,68.60
2017-05-28T06:34:47.593Z,68.70
2017-05-28T06:37:18.807Z,67.90
2017-05-28T06:39:49.663Z,68.30
2017-05-28T06:42:21.118Z,67.60
2017-05-28T06:44:52.166Z,69.20
2017-05-28T06:47:24.897Z,70.70
2017-05-28T06:49:55.730Z,72.40
2017-05-28T06:52:35.545Z,74.00
2017-05-28T06:55:06.985Z,74.90
2017-05-28T06:57:39.294Z,76.80
2017-05-28T07:00:10.384Z,77.60
2017-05-28T07:02:41.973Z,77.90
2017-05-28T07:05:13.679Z,78.40
2017-05-28T07:07:46.107Z,77.70
2017-05-28T07:10:16.956Z,76.60
2017-05-28T07:12:48.753Z,76.80
2017-05-28T07:15:19.601Z,74.00
2017-05-28T07:17:50.694Z,69.60
2017-05-28T07:20:21.661Z,67.30
2017-05-28T07:22:52.762Z,65.70
2017-05-28T07:25:23.766Z,63.20
2017-05-28T07:27:55.345Z,61.10
2017-05-28T07:30:26.258Z,61.30
2017-05-28T07:32:58.886Z,62.80
2017-05-28T07:35:30.236Z,60.70
2017-05-28T07:38:01.603Z,59.00
2017-05-28T07:40:32.734Z,59.50
2017-05-28T07:43:03.627Z,57.50
2017-05-28T07:45:34.570Z,54.90
2017-05-28T07:48:05.510Z,53.90
2017-05-28T07:50:36.403Z,54.50
2017-05-28T07:53:07.791Z,52.30
2017-05-28T07:55:39.257Z,52.40
2017-05-28T07:58:10.983Z,52.40
2017-05-28T08:00:41.861Z,51.40
2017-05-28T08:03:13.495Z,48.80
2017-05-28T08:05:44.476Z,45.90
2017-05-28T08:08:17.032Z,46.20
2017-05-28T08:10:47.827Z,48.30
2017-05-28T08:13:18.894Z,47.50
2017-05-28T08:15:51.057Z,45.90
2017-05-28T08:18:22.233Z,45.60
2017-05-28T08:20:55.247Z,44.40
2017-05-28T08:23:27.671Z,44.50
2017-05-28T08:25:58.665Z,42.90
2017-05-28T08:28:29.657Z,41.50
2017-05-28T08:31:00.443Z,40.10
2017-05-28T08:33:31.430Z,37.00
2017-05-28T08:36:02.342Z,37.30
2017-05-28T08:38:34.217Z,37.20
2017-05-28T08:41:04.963Z,37.20
2017-05-28T08:43:35.824Z,37.20
2017-05-28T08:47:09.453Z,35.90
2017-05-28T08:49:40.445Z,36.00
2017-05-28T08:52:12.199Z,37.40
2017-05-28T08:54:43.486Z,36.80
2017-05-28T08:57:14.465Z,39.30
2017-05-28T08:59:45.446Z,39.90
2017-05-28T09:02:16.939Z,41.60
2017-05-28T09:04:48.730Z,46.90
2017-05-28T09:07:19.732Z,51.20
2017-05-28T09:09:51.135Z,56.80
2017-05-28T09:12:26.769Z,62.90
2017-05-28T09:14:58.051Z,66.80
2017-05-28T09:17:29.991Z,70.80
2017-05-28T09:20:01.419Z,73.10
2017-05-28T09:22:32.929Z,73.40
2017-05-28T09:25:03.907Z,74.00
2017-05-28T09:27:34.898Z,77.30
2017-05-28T09:30:05.950Z,77.00
2017-05-28T09:32:37.952Z,76.40
2017-05-28T09:35:10.225Z,77.70
2017-05-28T09:37:42.425Z,78.40
2017-05-28T09:40:17.475Z,79.40
2017-05-28T09:42:48.881Z,80.80
2017-05-28T09:45:21.417Z,80.10
2017-05-28T09:47:52.354Z,81.70
2017-05-28T09:50:23.452Z,82.20
2017-05-28T09:52:54.816Z,81.70
2017-05-28T09:55:29.794Z,81.70
2017-05-28T09:58:00.864Z,83.20
2017-05-28T10:00:32.799Z,79.00
2017-05-28T10:03:08.424Z,81.90
2017-05-28T10:05:40.462Z,82.10
2017-05-28T10:08:11.515Z,78.10
2017-05-28T10:10:43.408Z,75.60
2017-05-28T10:13:15.166Z,78.00
2017-05-28T10:15:46.526Z,75.60
2017-05-28T10:18:18.042Z,77.30
2017-05-28T10:20:49.132Z,77.00
2017-05-28T10:23:20.902Z,76.90
2017-05-28T10:25:51.937Z,77.00
2017-05-28T10:28:22.797Z,76.00
2017-05-28T10:30:54.134Z,76.30
2017-05-28T10:33:26.180Z,75.80
2017-05-28T10:35:57.387Z,73.90
2017-05-28T10:38:29.776Z,76.00
2017-05-28T10:41:01.128Z,73.00
2017-05-28T10:43:32.649Z,74.00
2017-05-28T10:46:03.703Z,75.90
2017-05-28T10:48:35.422Z,74.00
2017-05-28T10:51:07.041Z,74.70
2017-05-28T10:53:38.125Z,73.40
2017-05-28T10:56:08.728Z,73.10
2017-05-28T10:58:40.177Z,69.10
2017-05-28T11:01:11.264Z,67.40
2017-05-28T11:03:42.227Z,67.60
2017-05-28T11:06:14.431Z,65.80
2017-05-28T11:08:45.814Z,64.10
2017-05-28T11:11:17.509Z,65.30
2017-05-28T11:13:48.803Z,63.40
2017-05-28T11:16:20.949Z,60.70
2017-05-28T11:18:51.416Z,60.80
2017-05-28T11:21:22.819Z,59.70
2017-05-28T11:23:56.608Z,52.90
2017-05-28T11:26:28.772Z,52.80
2017-05-28T11:29:00.740Z,54.80
2017-05-28T11:31:32.228Z,54.30
2017-05-28T11:34:05.201Z,50.30
2017-05-28T11:36:38.740Z,50.30
2017-05-28T11:39:10.877Z,49.10
2017-05-28T11:41:43.893Z,48.20
2017-05-28T11:44:15.008Z,48.20
2017-05-28T11:46:46.437Z,50.00
2017-05-28T11:49:30.847Z,51.70
2017-05-28T11:52:02.927Z,53.60
2017-05-28T11:54:34.686Z,53.30
2017-05-28T11:57:05.909Z,48.00
2017-05-28T11:59:40.785Z,47.90
2017-05-28T12:02:12.440Z,47.10
2017-05-28T12:04:43.413Z,42.90
2017-05-28T12:07:15.677Z,42.20
2017-05-28T12:09:48.123Z,42.70
2017-05-28T12:12:20.391Z,41.00
2017-05-28T12:14:51.916Z,37.50
2017-05-28T12:17:23.678Z,39.70
2017-05-28T12:19:54.900Z,38.50
2017-05-28T12:22:25.990Z,39.00
2017-05-28T12:24:57.287Z,37.70
2017-05-28T12:27:29.622Z,34.80
2017-05-28T12:30:01.094Z,33.50
2017-05-28T12:32:35.639Z,36.00
2017-05-28T12:35:07.095Z,36.00
2017-05-28T12:37:39.592Z,31.40
2017-05-28T12:40:10.957Z,32.80
2017-05-28T12:42:43.107Z,31.30
2017-05-28T12:45:14.125Z,29.60
2017-05-28T12:47:45.216Z,30.70
2017-05-28T12:50:17.309Z,35.20
2017-05-28T12:52:49.676Z,36.50
2017-05-28T12:55:20.675Z,37.60
2017-05-28T12:57:51.792Z,36.30
2017-05-28T13:00:23.095Z,38.10
2017-05-28T13:02:56.423Z,36.60
2017-05-28T13:05:27.501Z,36.80
2017-05-28T13:07:59.364Z,37.80
2017-05-28T13:10:30.626Z,38.20
2017-05-28T13:13:03.235Z,37.70
2017-05-28T13:15:34.333Z,36.00
2017-05-28T13:18:05.773Z,35.40
2017-05-28T13:20:36.878Z,35.00
2017-05-28T13:23:08.290Z,37.10
2017-05-28T13:25:39.818Z,37.20
2017-05-28T13:28:10.917Z,36.50
2017-05-28T13:30:42.064Z,37.00
2017-05-28T13:33:13.230Z,39.20
2017-05-28T13:35:46.094Z,35.40
2017-05-28T13:38:19.526Z,37.50
2017-05-28T13:40:51.399Z,35.00
2017-05-28T13:43:25.033Z,35.70
2017-05-28T13:45:55.990Z,32.70
2017-05-28T13:48:27.549Z,31.80
2017-05-28T13:50:59.393Z,33.50
2017-05-28T13:53:30.662Z,33.20
2017-05-28T13:56:03.167Z,33.60
2017-05-28T13:58:34.331Z,32.30
2017-05-28T14:01:05.329Z,33.90
2017-05-28T14:03:37.284Z,33.30
2017-05-28T14:06:08.390Z,33.70
2017-05-28T14:08:39.970Z,32.00
2017-05-28T14:11:10.961Z,30.70
2017-05-28T14:13:42.254Z,29.10
2017-05-28T14:16:13.151Z,28.20
2017-05-28T14:18:48.860Z,29.90
2017-05-28T14:21:19.982Z,34.80
2017-05-28T14:23:51.949Z,35.40
2017-05-28T14:26:24.068Z,34.00
2017-05-28T14:28:57.344Z,32.60
2017-05-28T14:31:28.212Z,32.40
2017-05-28T14:34:01.389Z,32.50
2017-05-28T14:36:32.356Z,37.00
2017-05-28T14:39:04.886Z,34.50
2017-05-28T14:41:39.291Z,32.00
2017-05-28T14:44:10.982Z,32.60
2017-05-28T14:46:42.707Z,30.80
2017-05-28T14:49:17.862Z,31.70
2017-05-28T14:51:49.556Z,31.10
2017-05-28T14:54:20.586Z,31.80
2017-05-28T14:56:52.581Z,31.40
2017-05-28T14:59:23.622Z,31.80
2017-05-28T15:01:54.062Z,31.70
2017-05-28T15:04:29.250Z,31.90
2017-05-28T15:07:01.965Z,33.70
2017-05-28T15:09:34.566Z,34.20
2017-05-28T15:12:06.534Z,35.10
2017-05-28T15:14:38.949Z,36.50
2017-05-28T15:17:09.955Z,36.50
2017-05-28T15:19:41.766Z,36.10
2017-05-28T15:22:12.815Z,37.70
2017-05-28T15:24:46.874Z,37.80
2017-05-28T15:27:18.165Z,37.10
2017-05-28T15:29:49.746Z,39.00
2017-05-28T15:32:20.873Z,38.00
2017-05-28T15:34:53.074Z,38.60
2017-05-28T15:37:26.446Z,38.80
2017-05-28T15:39:58.356Z,36.50
2017-05-28T15:42:33.278Z,36.50
2017-05-28T15:45:06.629Z,35.80
2017-05-28T15:47:38.579Z,35.50
2017-05-28T15:50:10.777Z,35.70
2017-05-28T15:52:41.866Z,33.80
2017-05-28T15:55:12.893Z,33.60
2017-05-28T15:57:44.264Z,34.10
2017-05-28T16:00:16.488Z,33.70
2017-05-28T16:02:47.996Z,33.40
2017-05-28T16:05:19.507Z,34.10
2017-05-28T16:07:50.597Z,34.00
2017-05-28T16:10:21.945Z,33.80
2017-05-28T16:12:53.317Z,34.20
2017-05-28T16:15:24.281Z,32.50
2017-05-28T16:17:58.396Z,32.80
2017-05-28T16:20:29.830Z,31.30
2017-05-28T16:23:00.841Z,30.10
2017-05-28T16:25:32.303Z,33.80
2017-05-28T16:28:03.750Z,35.60
2017-05-28T16:30:36.379Z,35.40
2017-05-28T16:33:07.830Z,36.70
2017-05-28T16:35:38.994Z,37.40
2017-05-28T16:38:10.030Z,38.10
2017-05-28T16:40:43.313Z,39.60
2017-05-28T16:43:14.658Z,41.00
2017-05-28T16:45:45.803Z,42.70
2017-05-28T16:48:16.927Z,42.40
2017-05-28T16:50:48.904Z,42.90
2017-05-28T16:53:20.686Z,44.40
2017-05-28T16:55:51.703Z,45.30
2017-05-28T16:58:23.049Z,46.30
2017-05-28T17:00:53.984Z,47.60
2017-05-28T17:03:25.120Z,47.60
2017-05-28T17:05:56.168Z,47.60
2017-05-28T17:08:27.614Z,47.80
2017-05-28T17:11:00.351Z,46.80
2017-05-28T17:13:31.622Z,47.60
2017-05-28T17:16:04.113Z,46.00
2017-05-28T17:18:37.365Z,44.70
2017-05-28T17:21:08.962Z,42.70
2017-05-28T17:23:39.961Z,40.50
2017-05-28T17:26:11.571Z,40.20
2017-05-28T17:28:43.421Z,40.30
2017-05-28T17:31:15.585Z,40.20
2017-05-28T17:33:46.799Z,41.20
2017-05-28T17:36:18.000Z,42.50
2017-05-28T17:38:49.220Z,43.00
2017-05-28T17:41:21.919Z,43.20
2017-05-28T17:43:55.023Z,43.50
2017-05-28T17:46:26.222Z,43.90
2017-05-28T17:49:03.994Z,44.00
2017-05-28T17:51:35.828Z,45.90
2017-05-28T17:54:08.830Z,46.30
2017-05-28T17:56:41.553Z,46.00
2017-05-28T17:59:12.646Z,46.90
2017-05-28T18:01:43.842Z,48.10
2017-05-28T18:04:15.582Z,47.70
2017-05-28T18:06:46.639Z,48.10
2017-05-28T18:09:17.835Z,49.10
2017-05-28T18:11:49.121Z,50.50
2017-05-28T18:14:20.273Z,50.80
2017-05-28T18:16:51.671Z,49.60
2017-05-28T18:19:24.746Z,50.60
2017-05-28T18:21:56.225Z,50.40
2017-05-28T18:24:28.190Z,50.00
2017-05-28T18:26:59.793Z,50.40
2017-05-28T18:29:31.534Z,50.50
2017-05-28T18:32:02.686Z,52.40
2017-05-28T18:34:33.177Z,52.30
2017-05-28T18:37:05.225Z,55.00
2017-05-28T18:39:36.327Z,55.40
2017-05-28T18:42:07.523Z,57.00
2017-05-28T18:44:38.590Z,57.20
2017-05-28T18:47:09.932Z,57.40
2017-05-28T18:49:40.841Z,56.80
2017-05-28T18:52:12.339Z,56.90
2017-05-28T18:54:45.857Z,57.60
2017-05-28T18:57:17.270Z,58.00
2017-05-28T18:59:48.154Z,59.70
2017-05-28T19:02:19.651Z,61.00
2017-05-28T19:04:50.118Z,61.00
2017-05-28T19:07:21.114Z,62.60
2017-05-28T19:09:52.431Z,62.90
2017-05-28T19:12:23.832Z,63.50
2017-05-28T19:14:54.790Z,63.60
2017-05-28T19:17:28.534Z,62.60
2017-05-28T19:20:00.467Z,63.00
2017-05-28T19:22:31.557Z,63.90
2017-05-28T19:25:02.779Z,64.20
2017-05-28T19:27:33.830Z,64.80
2017-05-28T19:30:06.816Z,64.70
2017-05-28T19:32:37.762Z,64.70
2017-05-28T19:35:08.683Z,64.60
2017-05-28T19:37:38.833Z,64.60
2017-05-28T19:40:09.941Z,64.50
2017-05-28T19:42:41.438Z,65.10
2017-05-28T19:45:12.474Z,65.40
2017-05-28T19:50:58.107Z,66.20
2017-05-28T19:56:23.237Z,67.00
2017-05-28T19:58:56.147Z,67.00
2017-05-28T20:01:28.145Z,67.20
2017-05-28T20:03:59.239Z,67.90
2017-05-28T20:06:30.263Z,67.50
2017-05-28T20:11:58.037Z,69.20
2017-05-28T20:14:30.961Z,69.50
2017-05-28T20:17:03.807Z,69.80
2017-05-28T20:19:34.733Z,70.20
2017-05-28T20:22:09.696Z,70.30
2017-05-28T20:24:40.700Z,70.20
2017-05-28T20:27:11.898Z,71.20
2017-05-28T20:29:44.015Z,71.90
2017-05-28T20:32:18.399Z,72.10
2017-05-28T20:34:50.695Z,71.80
2017-05-28T20:37:22.988Z,74.90
2017-05-28T20:39:53.969Z,76.50
2017-05-28T20:42:25.476Z,76.80
2017-05-28T20:44:56.583Z,74.90
2017-05-28T20:47:28.991Z,74.80
2017-05-28T20:49:59.973Z,76.20
2017-05-28T20:52:31.467Z,75.70
2017-05-28T20:55:02.593Z,74.80
2017-05-28T20:57:33.810Z,74.00
2017-05-28T21:00:05.079Z,74.10
2017-05-28T21:02:36.898Z,75.20
2017-05-28T21:05:08.501Z,75.60
2017-05-28T21:07:39.998Z,75.40
2017-05-28T21:10:12.847Z,75.10
2017-05-28T21:12:43.858Z,75.80
2017-05-28T21:15:14.998Z,76.20
2017-05-28T21:17:46.679Z,76.40
2017-05-28T21:20:18.404Z,76.60
2017-05-28T21:22:49.392Z,76.30
2017-05-28T21:25:20.867Z,76.40
2017-05-28T21:27:51.802Z,76.50
2017-05-28T21:30:22.849Z,77.30
2017-05-28T21:32:53.759Z,77.30
2017-05-28T21:35:24.785Z,77.90
2017-05-28T21:37:56.106Z,78.90
2017-05-28T21:40:27.307Z,78.40
2017-05-28T21:42:58.139Z,77.70
2017-05-28T21:45:29.906Z,77.30
2017-05-28T21:48:02.356Z,76.80
2017-05-28T21:50:34.388Z,77.40
2017-05-28T21:53:06.590Z,77.90
2017-05-28T21:55:37.614Z,78.80
2017-05-28T21:58:09.260Z,79.20
2017-05-28T22:00:40.452Z,79.30
2017-05-28T22:03:11.782Z,79.00
2017-05-28T22:05:42.820Z,78.40
2017-05-28T22:08:14.161Z,78.00
2017-05-28T22:10:46.022Z,77.30
2017-05-28T22:13:17.966Z,77.10
2017-05-28T22:15:48.947Z,77.40
2017-05-28T22:18:20.690Z,77.70
2017-05-28T22:20:51.744Z,78.10
2017-05-28T22:23:22.742Z,78.40
2017-05-28T22:25:53.650Z,77.50
2017-05-28T22:28:24.647Z,77.30
2017-05-28T22:30:55.539Z,78.30
2017-05-28T22:33:27.149Z,77.40
2017-05-28T22:36:00.127Z,77.40
2017-05-28T22:38:30.984Z,76.90
2017-05-28T22:41:01.995Z,76.60
2017-05-28T22:43:32.981Z,76.20
2017-05-28T22:48:44.373Z,76.60
2017-05-28T22:51:15.178Z,77.10
2017-05-28T22:53:46.103Z,77.10
2017-05-28T22:56:17.023Z,78.10
2017-05-28T22:58:48.008Z,77.90
2017-05-28T23:01:18.942Z,77.60
2017-05-28T23:03:50.373Z,77.80
2017-05-28T23:06:22.254Z,78.90
2017-05-28T23:08:54.494Z,79.20
2017-05-28T23:11:24.748Z,79.20
2017-05-28T23:13:57.117Z,79.00
2017-05-28T23:16:28.028Z,79.00
2017-05-28T23:19:00.142Z,79.00
2017-05-28T23:21:31.298Z,79.50
2017-05-28T23:24:02.308Z,79.60
2017-05-28T23:26:33.410Z,79.80
2017-05-28T23:29:06.313Z,80.10
2017-05-28T23:31:37.295Z,80.50
2017-05-28T23:34:09.193Z,81.00
2017-05-28T23:36:40.131Z,81.00
2017-05-28T23:39:11.681Z,81.00
2017-05-28T23:41:42.707Z,80.90
2017-05-28T23:44:13.934Z,80.80
2017-05-28T23:46:44.973Z,80.80
2017-05-28T23:49:16.678Z,80.70
2017-05-28T23:51:47.687Z,80.70
2017-05-28T23:54:18.743Z,80.70
2017-05-28T23:56:49.813Z,81.90
2017-05-28T23:59:20.906Z,81.70
